Time;durP1;ratioP1;P1;durP2;ratioP2;P2;SDS_P1;SDS_P2;PMS_P1;PMS_P2;Temp;Humidity;BMP_temperature;BMP_pressure;BME280_temperature;BME280_humidity;BME280_pressure;Samples;Min_cycle;Max_cycle;Signal;HPM_P1;HPM_P2
2024/03/03 00:00:35;;;;;;;22.97;14.83;;;7.30;99.90;;;;;;4953235;28;20284;-53
2024/03/03 00:03:02;;;;;;;21.57;14.90;;;7.20;99.90;;;;;;4960474;28;20198;-53
2024/03/03 00:05:28;;;;;;;23.97;15.17;;;7.20;99.90;;;;;;4963178;28;20616;-50
2024/03/03 00:07:55;;;;;;;23.07;14.50;;;7.30;99.90;;;;;;4959067;28;20186;-51
2024/03/03 00:10:22;;;;;;;22.13;14.90;;;7.30;99.90;;;;;;4934846;28;20640;-55
2024/03/03 00:12:49;;;;;;;24.37;14.37;;;7.20;99.90;;;;;;4958717;28;20556;-55
2024/03/03 00:15:16;;;;;;;22.57;15.07;;;7.20;99.90;;;;;;4953469;28;20688;-48
2024/03/03 00:17:44;;;;;;;23.50;14.60;;;7.10;99.90;;;;;;4959335;28;20245;-56
2024/03/03 00:20:12;;;;;;;23.00;14.67;;;7.10;99.90;;;;;;4954666;28;20293;-50
2024/03/03 00:22:38;;;;;;;21.00;14.10;;;7.10;99.90;;;;;;4961408;28;20198;-56
2024/03/03 00:25:05;;;;;;;26.23;16.07;;;7.20;99.90;;;;;;4929133;28;20241;-52
2024/03/03 00:27:32;;;;;;;27.60;15.63;;;7.10;99.90;;;;;;4959758;28;20217;-51
2024/03/03 00:29:59;;;;;;;23.03;15.13;;;7.10;99.90;;;;;;4954770;28;20238;-52
2024/03/03 00:32:27;;;;;;;26.13;16.67;;;7.10;99.90;;;;;;4960506;28;20202;-50
2024/03/03 00:34:56;;;;;;;23.77;15.43;;;7.10;99.90;;;;;;4965967;28;20194;-49
2024/03/03 00:37:23;;;;;;;22.77;15.87;;;7.10;99.90;;;;;;4962480;28;20640;-54
2024/03/03 00:39:50;;;;;;;26.80;16.53;;;7.10;99.90;;;;;;4933907;28;20226;-54
2024/03/03 00:42:16;;;;;;;26.30;16.40;;;7.10;99.90;;;;;;4963728;28;20648;-55
2024/03/03 00:44:43;;;;;;;24.43;15.93;;;7.10;99.90;;;;;;4953849;28;20206;-54
2024/03/03 00:47:10;;;;;;;25.97;15.60;;;7.10;99.90;;;;;;4950159;28;20218;-49
2024/03/03 00:49:37;;;;;;;26.57;14.97;;;7.10;99.90;;;;;;4965962;28;20222;-49
2024/03/03 00:52:05;;;;;;;22.17;14.60;;;7.10;99.90;;;;;;4961717;28;20190;-51
2024/03/03 00:54:33;;;;;;;19.83;14.30;;;7.00;99.90;;;;;;4963607;28;20222;-52
2024/03/03 00:57:00;;;;;;;22.63;15.90;;;7.00;99.90;;;;;;4933285;28;20272;-50
2024/03/03 00:59:27;;;;;;;26.07;16.80;;;6.90;99.90;;;;;;4965269;28;20233;-50
2024/03/03 01:01:53;;;;;;;24.60;15.93;;;6.90;99.90;;;;;;4968945;28;20355;-55
2024/03/03 01:04:20;;;;;;;25.00;15.13;;;6.90;99.90;;;;;;4958845;28;20198;-50
2024/03/03 01:06:47;;;;;;;28.97;17.20;;;6.90;99.90;;;;;;4963732;28;20202;-55
2024/03/03 01:09:16;;;;;;;26.43;16.83;;;7.00;99.90;;;;;;4963393;28;20288;-50
2024/03/03 01:11:43;;;;;;;23.53;15.20;;;7.00;99.90;;;;;;4932057;28;20210;-54
2024/03/03 01:14:10;;;;;;;23.90;15.27;;;6.90;99.90;;;;;;4961904;28;20394;-50
2024/03/03 01:16:36;;;;;;;26.20;15.60;;;6.90;99.90;;;;;;4956257;28;20210;-52
2024/03/03 01:19:03;;;;;;;22.67;14.90;;;6.80;99.90;;;;;;4961251;28;20213;-52
2024/03/03 01:21:30;;;;;;;23.97;15.93;;;6.80;99.90;;;;;;4964256;28;20278;-54
2024/03/03 01:23:57;;;;;;;24.40;16.03;;;6.80;99.90;;;;;;4961275;28;20198;-55
2024/03/03 01:26:25;;;;;;;26.27;15.60;;;6.80;99.90;;;;;;4964998;28;20257;-53
2024/03/03 01:28:52;;;;;;;24.10;15.40;;;6.70;99.90;;;;;;4932623;28;20256;-56
2024/03/03 01:31:19;;;;;;;24.43;16.60;;;6.70;99.90;;;;;;4953318;28;21676;-53
2024/03/03 01:33:45;;;;;;;26.53;15.83;;;6.70;99.90;;;;;;4962909;28;20190;-54
2024/03/03 01:36:13;;;;;;;27.30;16.00;;;6.70;99.90;;;;;;4962804;28;20198;-49
2024/03/03 01:38:40;;;;;;;25.50;16.47;;;6.60;99.90;;;;;;4963298;28;20911;-52
2024/03/03 01:41:07;;;;;;;26.23;16.30;;;6.60;99.90;;;;;;4961466;28;20253;-54
2024/03/03 01:43:35;;;;;;;26.17;16.20;;;6.60;99.90;;;;;;4934457;28;20218;-50
2024/03/03 01:46:03;;;;;;;23.03;16.47;;;6.60;99.90;;;;;;4950418;28;20207;-51
2024/03/03 01:48:30;;;;;;;28.60;17.07;;;6.60;99.90;;;;;;4964994;28;20286;-48
2024/03/03 01:50:59;;;;;;;29.93;17.30;;;6.60;99.90;;;;;;4960769;28;20224;-56
2024/03/03 01:53:26;;;;;;;28.70;17.33;;;6.60;99.90;;;;;;4963024;28;20206;-48
2024/03/03 01:55:54;;;;;;;29.53;17.47;;;6.60;99.90;;;;;;4962131;28;20198;-56
2024/03/03 01:58:21;;;;;;;27.53;18.00;;;6.60;99.90;;;;;;4934457;28;20209;-56
2024/03/03 02:00:50;;;;;;;28.03;17.03;;;6.60;99.90;;;;;;4952912;28;20205;-49
2024/03/03 02:03:18;;;;;;;26.97;17.17;;;6.60;99.90;;;;;;4952759;28;20620;-55
2024/03/03 02:05:46;;;;;;;33.10;18.67;;;6.60;99.90;;;;;;4961547;28;20182;-50
2024/03/03 02:08:13;;;;;;;31.50;17.83;;;6.60;99.90;;;;;;4963583;28;20214;-53
2024/03/03 02:10:40;;;;;;;32.23;18.23;;;6.60;99.90;;;;;;4962840;28;20813;-52
2024/03/03 02:13:06;;;;;;;25.13;15.80;;;6.60;99.90;;;;;;4963322;28;20221;-52
2024/03/03 02:15:34;;;;;;;28.43;17.13;;;6.60;99.90;;;;;;4932058;28;20557;-50
2024/03/03 02:18:02;;;;;;;30.27;18.10;;;6.50;99.90;;;;;;4954032;28;20708;-51
2024/03/03 02:20:29;;;;;;;30.10;18.33;;;6.50;99.90;;;;;;4959239;28;20763;-53
2024/03/03 02:22:57;;;;;;;26.17;16.23;;;6.50;99.90;;;;;;4962846;28;20214;-50
2024/03/03 02:25:24;;;;;;;27.60;16.83;;;6.50;99.90;;;;;;4960205;28;20260;-55
2024/03/03 02:27:51;;;;;;;27.37;17.30;;;6.50;99.90;;;;;;4962822;28;20194;-50
2024/03/03 02:30:18;;;;;;;29.53;17.93;;;6.50;99.90;;;;;;4932490;28;20721;-55
2024/03/03 02:32:45;;;;;;;27.77;17.00;;;6.50;99.90;;;;;;4953055;28;20210;-53
2024/03/03 02:35:12;;;;;;;28.27;17.53;;;6.50;99.90;;;;;;4963226;28;20214;-54
2024/03/03 02:37:38;;;;;;;31.20;17.00;;;6.50;99.90;;;;;;4961579;28;20285;-51
2024/03/03 02:40:08;;;;;;;33.37;18.50;;;6.50;99.90;;;;;;4963567;28;20619;-53
2024/03/03 02:42:35;;;;;;;32.17;18.80;;;6.50;99.90;;;;;;4959298;28;20549;-49
2024/03/03 02:45:02;;;;;;;28.90;17.30;;;6.50;99.90;;;;;;4963443;28;20202;-50
2024/03/03 02:47:29;;;;;;;30.83;18.27;;;6.60;99.90;;;;;;4922585;28;20209;-55
2024/03/03 02:49:55;;;;;;;33.80;19.30;;;6.60;99.90;;;;;;4961155;28;20233;-52
2024/03/03 02:52:22;;;;;;;30.00;18.13;;;6.50;99.90;;;;;;4960818;28;20830;-55
2024/03/03 02:54:49;;;;;;;31.20;18.43;;;6.50;99.90;;;;;;4962644;28;20206;-51
2024/03/03 02:57:18;;;;;;;32.17;18.90;;;6.50;99.90;;;;;;4960442;28;20198;-55
2024/03/03 02:59:45;;;;;;;32.33;17.93;;;6.50;99.90;;;;;;4961404;28;20245;-52
2024/03/03 03:02:11;;;;;;;33.67;19.03;;;6.50;99.90;;;;;;4933624;28;20611;-52
2024/03/03 03:04:38;;;;;;;32.93;18.70;;;6.60;99.90;;;;;;4951212;28;20201;-51
2024/03/03 03:07:05;;;;;;;29.77;19.10;;;6.60;99.90;;;;;;4948512;28;20202;-54
2024/03/03 03:09:32;;;;;;;29.17;18.00;;;6.60;99.90;;;;;;4961258;28;20220;-50
2024/03/03 03:11:59;;;;;;;30.30;18.67;;;6.50;99.90;;;;;;4959303;28;20214;-55
2024/03/03 03:14:28;;;;;;;25.17;16.17;;;6.50;99.90;;;;;;4960202;28;20190;-50
2024/03/03 03:16:55;;;;;;;28.53;17.43;;;6.50;99.90;;;;;;4950991;28;20812;-53
2024/03/03 03:19:23;;;;;;;31.17;17.80;;;6.50;99.90;;;;;;4936253;28;20237;-54
2024/03/03 03:21:50;;;;;;;27.80;17.20;;;6.40;99.90;;;;;;4963662;28;20202;-50
2024/03/03 03:24:16;;;;;;;29.70;17.13;;;6.50;99.90;;;;;;4959423;28;20371;-54
2024/03/03 03:26:43;;;;;;;28.50;17.47;;;6.40;99.90;;;;;;4963504;28;20190;-52
2024/03/03 03:29:10;;;;;;;29.03;17.03;;;6.40;99.90;;;;;;4959043;28;20304;-49
2024/03/03 03:31:38;;;;;;;29.23;17.57;;;6.40;99.90;;;;;;4963350;28;20257;-48
2024/03/03 03:34:05;;;;;;;26.37;18.37;;;6.40;99.90;;;;;;4923658;28;20276;-55
2024/03/03 03:36:32;;;;;;;27.77;16.90;;;6.30;99.90;;;;;;4962280;28;20206;-50
2024/03/03 03:39:01;;;;;;;26.77;17.40;;;6.40;99.90;;;;;;4961062;28;20672;-54
2024/03/03 03:41:28;;;;;;;26.77;17.23;;;6.40;99.90;;;;;;4961500;28;20260;-52
2024/03/03 03:43:54;;;;;;;27.43;18.10;;;6.40;99.90;;;;;;4962081;28;20194;-55
2024/03/03 03:46:21;;;;;;;25.83;17.13;;;6.30;99.90;;;;;;4960717;28;20280;-51
2024/03/03 03:48:49;;;;;;;29.93;17.67;;;6.40;99.90;;;;;;4934273;28;20226;-52
2024/03/03 03:51:16;;;;;;;27.03;17.17;;;6.40;99.90;;;;;;4951733;28;20218;-54
2024/03/03 03:53:43;;;;;;;33.97;18.40;;;6.30;99.90;;;;;;4962772;28;20277;-49
2024/03/03 03:56:10;;;;;;;30.10;18.20;;;6.30;99.90;;;;;;4959269;28;20222;-48
2024/03/03 03:58:37;;;;;;;30.83;18.57;;;6.40;99.90;;;;;;4962645;28;20209;-48
2024/03/03 04:01:04;;;;;;;26.47;17.87;;;6.40;99.90;;;;;;4959619;28;20288;-53
2024/03/03 04:03:31;;;;;;;25.90;17.40;;;6.40;99.90;;;;;;4962153;28;20202;-51
2024/03/03 04:05:59;;;;;;;27.47;16.50;;;6.30;99.90;;;;;;4926787;28;20743;-53
2024/03/03 04:08:26;;;;;;;30.37;16.77;;;6.30;99.90;;;;;;4964871;28;20190;-52
2024/03/03 04:10:53;;;;;;;30.03;18.20;;;6.20;99.90;;;;;;4966317;28;20226;-54
2024/03/03 04:13:19;;;;;;;31.83;18.00;;;6.30;99.90;;;;;;4962311;28;20266;-52
2024/03/03 04:15:46;;;;;;;33.03;18.20;;;6.30;99.90;;;;;;4966370;28;20276;-48
2024/03/03 04:18:13;;;;;;;27.33;16.47;;;6.30;99.90;;;;;;4962609;28;20292;-48
2024/03/03 04:20:40;;;;;;;30.20;18.10;;;6.30;99.90;;;;;;4936229;28;20229;-49
2024/03/03 04:23:08;;;;;;;27.83;17.07;;;6.30;99.90;;;;;;4944074;28;20661;-51
2024/03/03 04:25:35;;;;;;;27.03;16.73;;;6.20;99.90;;;;;;4958591;28;20190;-55
2024/03/03 04:28:01;;;;;;;25.77;16.17;;;6.20;99.90;;;;;;4965625;28;20260;-51
2024/03/03 04:30:28;;;;;;;30.93;16.90;;;6.10;99.90;;;;;;4957597;28;20230;-54
2024/03/03 04:32:55;;;;;;;25.43;16.17;;;6.00;99.90;;;;;;4964944;28;20383;-50
2024/03/03 04:35:22;;;;;;;26.50;16.93;;;6.00;99.90;;;;;;4936903;28;20226;-53
2024/03/03 04:37:48;;;;;;;29.97;16.60;;;6.00;99.90;;;;;;4954351;28;20264;-50
2024/03/03 04:40:17;;;;;;;27.23;16.50;;;6.00;99.90;;;;;;4965516;28;20240;-51
2024/03/03 04:42:46;;;;;;;30.40;17.60;;;6.00;99.90;;;;;;4961793;28;20829;-56
2024/03/03 04:45:12;;;;;;;36.10;18.50;;;6.00;99.90;;;;;;4965665;28;20226;-51
2024/03/03 04:47:40;;;;;;;28.97;17.17;;;6.00;99.90;;;;;;4962778;28;20688;-52
2024/03/03 04:50:08;;;;;;;26.63;16.40;;;6.00;99.90;;;;;;4965645;28;20253;-50
2024/03/03 04:52:35;;;;;;;26.13;16.07;;;5.90;99.90;;;;;;4927474;28;20237;-55
2024/03/03 04:55:02;;;;;;;27.03;16.13;;;5.80;99.90;;;;;;4963810;28;20214;-54
2024/03/03 04:57:31;;;;;;;30.10;17.77;;;5.80;99.90;;;;;;4960642;28;20197;-51
2024/03/03 04:59:58;;;;;;;26.07;16.60;;;5.80;99.90;;;;;;4963968;28;20297;-54
2024/03/03 05:02:25;;;;;;;27.87;17.53;;;5.70;99.90;;;;;;4953127;28;20237;-54
2024/03/03 05:04:52;;;;;;;24.37;17.00;;;5.70;99.90;;;;;;4964950;28;20198;-54
2024/03/03 05:07:18;;;;;;;24.77;17.00;;;5.60;99.90;;;;;;4932734;28;20956;-50
2024/03/03 05:09:45;;;;;;;28.67;16.87;;;5.60;99.90;;;;;;4949855;28;20245;-50
2024/03/03 05:12:12;;;;;;;23.63;15.90;;;5.60;99.90;;;;;;4960837;28;20229;-55
2024/03/03 05:14:40;;;;;;;24.13;16.70;;;5.60;99.90;;;;;;4965130;28;20198;-50
2024/03/03 05:17:07;;;;;;;26.30;16.93;;;5.50;99.90;;;;;;4962587;28;20218;-55
2024/03/03 05:19:34;;;;;;;29.50;17.10;;;5.40;99.90;;;;;;4963505;28;20696;-50
2024/03/03 05:22:00;;;;;;;23.53;15.97;;;5.40;99.90;;;;;;4935210;28;20691;-54
2024/03/03 05:24:27;;;;;;;27.33;16.43;;;5.40;99.90;;;;;;4953579;28;20212;-49
2024/03/03 05:26:54;;;;;;;28.07;17.43;;;5.40;99.90;;;;;;4965429;28;20292;-50
2024/03/03 05:29:21;;;;;;;27.33;16.87;;;5.40;99.90;;;;;;4961633;28;20252;-50
2024/03/03 05:31:49;;;;;;;30.47;17.50;;;5.40;99.90;;;;;;4965310;28;20222;-51
2024/03/03 05:34:17;;;;;;;27.17;16.70;;;5.40;99.90;;;;;;4960940;28;20256;-53
2024/03/03 05:36:44;;;;;;;27.40;16.83;;;5.40;99.90;;;;;;4932584;28;20214;-50
2024/03/03 05:39:11;;;;;;;27.47;16.33;;;5.40;99.90;;;;;;4952563;28;20233;-55
2024/03/03 05:41:38;;;;;;;30.10;17.57;;;5.40;99.90;;;;;;4964959;28;20273;-50
2024/03/03 05:44:05;;;;;;;26.43;16.43;;;5.40;99.90;;;;;;4962902;28;20206;-54
2024/03/03 05:46:32;;;;;;;28.27;17.10;;;5.30;99.90;;;;;;4963232;28;20224;-52
2024/03/03 05:49:00;;;;;;;24.20;15.60;;;5.30;99.90;;;;;;4962760;28;20201;-55
2024/03/03 05:51:27;;;;;;;27.63;17.57;;;5.20;99.90;;;;;;4961600;28;20218;-50
2024/03/03 05:53:54;;;;;;;23.60;15.80;;;5.20;99.90;;;;;;4936602;28;20198;-48
2024/03/03 05:56:21;;;;;;;27.47;17.40;;;5.20;99.90;;;;;;4950837;28;20264;-50
2024/03/03 05:58:48;;;;;;;29.80;16.60;;;5.10;99.90;;;;;;4964404;28;20210;-49
2024/03/03 06:01:15;;;;;;;26.93;16.70;;;5.20;99.90;;;;;;4957169;28;20230;-49
2024/03/03 06:03:42;;;;;;;24.10;16.20;;;5.10;99.90;;;;;;4964230;28;20687;-48
2024/03/03 06:06:10;;;;;;;26.27;15.87;;;5.10;99.90;;;;;;4957192;28;20269;-54
2024/03/03 06:08:41;;;;;;;33.10;17.60;;;5.10;99.90;;;;;;4934552;28;20214;-52
2024/03/03 06:11:08;;;;;;;30.23;17.47;;;5.20;99.90;;;;;;4952669;28;20648;-53
2024/03/03 06:13:35;;;;;;;30.23;19.17;;;5.20;99.90;;;;;;4963515;28;20194;-49
2024/03/03 06:16:02;;;;;;;26.87;16.90;;;5.20;99.90;;;;;;4962324;28;20297;-55
2024/03/03 06:18:30;;;;;;;30.00;18.37;;;5.20;99.90;;;;;;4962133;28;20257;-49
2024/03/03 06:20:57;;;;;;;29.13;18.13;;;5.20;99.90;;;;;;4963272;28;20335;-53
2024/03/03 06:23:26;;;;;;;33.40;19.13;;;5.20;99.90;;;;;;4925464;28;20221;-53
2024/03/03 06:25:52;;;;;;;38.47;19.83;;;5.20;99.90;;;;;;4956754;28;20213;-53
2024/03/03 06:28:19;;;;;;;34.23;19.60;;;5.20;99.90;;;;;;4951761;28;21614;-51
2024/03/03 06:30:47;;;;;;;36.67;19.77;;;5.30;99.90;;;;;;4969603;28;20224;-51
2024/03/03 06:33:14;;;;;;;33.03;19.50;;;5.30;99.90;;;;;;4962890;28;20255;-51
2024/03/03 06:35:40;;;;;;;35.17;20.10;;;5.30;99.90;;;;;;4956748;28;20221;-51
2024/03/03 06:38:07;;;;;;;32.20;19.50;;;5.40;99.90;;;;;;4944256;28;20249;-53
2024/03/03 06:40:35;;;;;;;31.77;19.67;;;5.40;99.90;;;;;;4938336;28;20584;-56
2024/03/03 06:43:02;;;;;;;37.47;20.73;;;5.40;99.90;;;;;;4970397;28;20285;-53
2024/03/03 06:45:29;;;;;;;34.47;19.13;;;5.40;99.90;;;;;;4952861;28;20212;-55
2024/03/03 06:47:56;;;;;;;36.23;20.73;;;5.50;99.90;;;;;;4964076;28;20892;-49
2024/03/03 06:50:23;;;;;;;34.47;20.83;;;5.40;99.90;;;;;;4955219;28;20230;-55
2024/03/03 06:52:49;;;;;;;37.40;21.40;;;5.50;99.90;;;;;;4961617;28;20209;-49
2024/03/03 06:55:17;;;;;;;40.80;21.90;;;5.50;99.90;;;;;;4925082;28;20214;-51
2024/03/03 06:57:47;;;;;;;38.17;21.87;;;5.50;99.90;;;;;;4953115;28;20838;-53
2024/03/03 07:00:14;;;;;;;37.43;20.57;;;5.50;99.90;;;;;;4963413;28;20221;-53
2024/03/03 07:05:26;;;;;;;35.27;20.83;;;5.50;99.90;;;;;;4939400;28;20206;-49
2024/03/03 07:07:53;;;;;;;36.37;20.37;;;5.50;99.90;;;;;;4963960;28;20210;-51
2024/03/03 07:10:20;;;;;;;32.57;20.73;;;5.60;99.90;;;;;;4923418;28;20226;-52
2024/03/03 07:12:48;;;;;;;35.53;21.50;;;5.60;99.90;;;;;;4951274;28;20210;-54
2024/03/03 07:15:14;;;;;;;35.63;22.00;;;5.60;99.90;;;;;;4962765;28;20209;-55
2024/03/03 07:17:42;;;;;;;37.23;21.60;;;5.70;99.90;;;;;;4964646;28;20557;-49
2024/03/03 07:20:10;;;;;;;42.37;22.30;;;5.80;99.90;;;;;;4965688;28;20221;-54
2024/03/03 07:22:37;;;;;;;33.90;19.87;;;5.70;99.90;;;;;;4954389;28;20210;-50
2024/03/03 07:25:04;;;;;;;33.50;20.90;;;5.80;99.90;;;;;;4952809;28;20687;-56
2024/03/03 07:27:31;;;;;;;38.07;21.27;;;5.70;99.90;;;;;;4947002;28;20221;-50
2024/03/03 07:30:00;;;;;;;35.00;19.53;;;5.70;99.90;;;;;;4955749;28;20285;-55
2024/03/03 07:32:28;;;;;;;34.53;20.07;;;5.70;99.90;;;;;;4960524;28;20272;-52
2024/03/03 07:34:55;;;;;;;35.27;20.27;;;5.70;99.90;;;;;;4963556;28;20198;-53
2024/03/03 07:37:22;;;;;;;38.60;21.77;;;5.70;99.90;;;;;;4950684;28;20272;-52
2024/03/03 07:39:49;;;;;;;36.87;21.80;;;5.70;99.90;;;;;;4962175;28;20307;-52
2024/03/03 07:42:16;;;;;;;32.10;21.07;;;5.70;99.90;;;;;;4935820;28;20613;-55
2024/03/03 07:44:42;;;;;;;33.60;20.27;;;5.80;99.90;;;;;;4955671;28;20210;-54
2024/03/03 07:47:10;;;;;;;32.27;20.83;;;5.80;99.90;;;;;;4965381;28;20285;-56
2024/03/03 07:49:37;;;;;;;36.27;20.50;;;5.80;99.90;;;;;;4966647;28;20221;-50
2024/03/03 07:52:04;;;;;;;29.43;19.13;;;5.80;99.90;;;;;;4966289;28;20276;-54
2024/03/03 07:54:31;;;;;;;33.60;20.70;;;5.90;99.90;;;;;;4950767;28;20516;-54
2024/03/03 07:56:58;;;;;;;40.93;23.60;;;5.90;99.90;;;;;;4938616;28;20225;-55
2024/03/03 07:59:24;;;;;;;39.03;21.63;;;5.90;99.90;;;;;;4956236;28;20277;-52
2024/03/03 08:01:51;;;;;;;38.33;22.40;;;6.00;99.90;;;;;;4967582;28;20231;-52
2024/03/03 08:04:20;;;;;;;42.93;23.33;;;6.10;99.90;;;;;;4954715;28;20210;-50
2024/03/03 08:06:47;;;;;;;40.30;24.33;;;6.20;99.90;;;;;;4953958;28;20217;-52
2024/03/03 08:09:14;;;;;;;41.67;23.43;;;6.20;99.90;;;;;;4955654;28;20244;-56
2024/03/03 08:11:41;;;;;;;38.03;23.30;;;6.30;99.90;;;;;;4930818;28;20935;-52
2024/03/03 08:14:08;;;;;;;38.87;22.80;;;6.30;99.90;;;;;;4958965;28;20229;-54
2024/03/03 08:16:36;;;;;;;44.53;24.37;;;6.40;99.90;;;;;;4967311;28;20261;-49
2024/03/03 08:19:03;;;;;;;40.93;23.13;;;6.40;99.90;;;;;;4966761;28;20236;-51
2024/03/03 08:21:31;;;;;;;43.60;24.33;;;6.50;99.90;;;;;;4964013;28;20193;-48
2024/03/03 08:23:58;;;;;;;46.60;25.13;;;6.60;99.90;;;;;;4966808;28;20681;-49
2024/03/03 08:26:26;;;;;;;39.60;24.53;;;6.60;99.90;;;;;;4926061;28;20222;-54
2024/03/03 08:28:53;;;;;;;43.10;24.80;;;6.70;99.90;;;;;;4960416;28;20209;-51
2024/03/03 08:31:20;;;;;;;48.03;27.77;;;6.80;99.90;;;;;;4967764;28;20301;-55
2024/03/03 08:33:47;;;;;;;48.43;27.77;;;6.90;99.90;;;;;;4968013;28;20697;-52
2024/03/03 08:36:14;;;;;;;49.20;26.93;;;7.00;99.90;;;;;;4965764;28;20206;-55
2024/03/03 08:38:42;;;;;;;48.73;27.57;;;7.10;99.90;;;;;;4964816;28;20197;-53
2024/03/03 08:41:09;;;;;;;51.60;27.93;;;7.20;99.90;;;;;;4958433;28;20217;-55
2024/03/03 08:43:35;;;;;;;54.33;30.53;;;7.40;99.90;;;;;;4948905;28;20881;-54
2024/03/03 08:46:02;;;;;;;49.27;29.40;;;7.50;99.90;;;;;;4956590;28;20671;-56
2024/03/03 08:48:29;;;;;;;51.83;30.67;;;7.50;99.90;;;;;;4964751;28;20194;-51
2024/03/03 08:50:56;;;;;;;49.70;29.17;;;7.60;99.90;;;;;;4967270;28;20213;-54
2024/03/03 08:53:23;;;;;;;61.83;30.40;;;7.70;99.90;;;;;;4956926;28;20285;-52
2024/03/03 08:55:51;;;;;;;55.30;31.03;;;7.80;99.90;;;;;;4963032;28;20198;-50
2024/03/03 08:58:19;;;;;;;51.57;30.77;;;7.90;99.90;;;;;;4921069;28;20364;-53
2024/03/03 09:00:46;;;;;;;50.30;30.00;;;8.00;99.90;;;;;;4956675;28;20223;-52
2024/03/03 09:03:13;;;;;;;50.77;30.00;;;8.10;99.90;;;;;;4963973;28;20194;-49
2024/03/03 09:05:40;;;;;;;50.50;29.33;;;8.20;99.90;;;;;;4956491;28;20272;-51
2024/03/03 09:08:07;;;;;;;58.20;31.27;;;8.30;99.90;;;;;;4955594;28;20206;-52
2024/03/03 09:10:34;;;;;;;50.33;29.63;;;8.40;99.90;;;;;;4964407;28;20276;-53
2024/03/03 09:13:03;;;;;;;47.87;29.50;;;8.40;99.90;;;;;;4941371;28;20221;-51
2024/03/03 09:15:30;;;;;;;50.67;30.23;;;8.50;99.90;;;;;;4946836;28;20213;-52
2024/03/03 09:17:57;;;;;;;48.03;29.00;;;8.50;99.90;;;;;;4966323;28;20197;-53
2024/03/03 09:20:24;;;;;;;48.50;29.63;;;8.60;99.90;;;;;;4963493;28;20218;-55
2024/03/03 09:22:51;;;;;;;46.00;27.70;;;8.70;99.90;;;;;;4966922;28;20609;-53
2024/03/03 09:25:18;;;;;;;48.53;28.83;;;8.80;99.90;;;;;;4955993;28;20230;-52
2024/03/03 09:27:45;;;;;;;46.27;28.83;;;8.90;99.90;;;;;;4957968;28;20210;-51
2024/03/03 09:30:14;;;;;;;45.00;28.87;;;9.10;99.90;;;;;;4933693;28;21013;-51
2024/03/03 09:32:41;;;;;;;45.03;28.53;;;9.30;99.90;;;;;;4958104;28;20226;-49
2024/03/03 09:35:09;;;;;;;44.40;27.70;;;9.50;99.90;;;;;;4964031;28;20235;-51
2024/03/03 09:37:38;;;;;;;43.83;26.87;;;9.60;99.90;;;;;;4964787;28;20204;-50
2024/03/03 09:40:13;;;;;;;41.17;27.10;;;9.70;99.90;;;;;;4954848;28;20236;-51
2024/03/03 09:42:44;;;;;;;41.77;26.43;;;9.70;99.90;;;;;;4947598;28;20277;-54
2024/03/03 09:45:14;;;;;;;41.50;25.73;;;9.90;99.90;;;;;;4932490;28;20206;-52
2024/03/03 09:47:42;;;;;;;42.43;26.47;;;9.90;99.90;;;;;;4956749;28;20809;-49
2024/03/03 09:50:12;;;;;;;39.17;25.87;;;10.00;99.90;;;;;;4955549;28;20238;-53
2024/03/03 09:52:41;;;;;;;41.90;27.03;;;10.10;99.90;;;;;;4937163;28;20270;-49
2024/03/03 09:55:10;;;;;;;41.23;25.67;;;10.30;99.90;;;;;;4952736;28;20224;-54
2024/03/03 09:57:37;;;;;;;41.33;25.10;;;10.40;99.90;;;;;;4952235;28;20198;-49
2024/03/03 10:00:06;;;;;;;34.37;24.03;;;10.50;99.90;;;;;;4926653;28;20320;-52
2024/03/03 10:02:42;;;;;;;35.27;23.60;;;10.60;99.90;;;;;;4944862;28;20225;-51
2024/03/03 10:05:10;;;;;;;35.90;22.67;;;10.80;99.90;;;;;;4956975;28;20202;-51
2024/03/03 10:07:39;;;;;;;35.40;24.03;;;10.90;99.90;;;;;;4957858;28;20206;-52
2024/03/03 10:10:08;;;;;;;34.67;22.90;;;11.00;99.90;;;;;;4961792;28;20296;-52
2024/03/03 10:12:36;;;;;;;34.40;22.30;;;11.10;99.90;;;;;;4953705;28;20228;-53
2024/03/03 10:15:07;;;;;;;29.80;20.93;;;11.10;99.90;;;;;;4957417;28;20213;-50
2024/03/03 10:17:34;;;;;;;27.77;21.37;;;11.20;99.90;;;;;;4924523;28;20208;-51
2024/03/03 10:20:06;;;;;;;35.80;21.63;;;11.20;99.90;;;;;;4965194;28;20646;-50
2024/03/03 10:22:33;;;;;;;32.93;21.40;;;11.30;99.90;;;;;;4952117;28;20225;-50
2024/03/03 10:25:11;;;;;;;30.57;21.37;;;11.40;99.90;;;;;;4969367;28;20206;-53
2024/03/03 10:27:39;;;;;;;32.13;21.70;;;11.50;99.90;;;;;;4970177;28;20292;-50
2024/03/03 10:30:09;;;;;;;28.83;21.00;;;11.50;99.90;;;;;;4971063;28;20882;-51
2024/03/03 10:32:36;;;;;;;28.43;21.50;;;11.60;99.90;;;;;;4930279;28;20214;-55
2024/03/03 10:35:05;;;;;;;27.57;19.83;;;11.60;99.90;;;;;;4962418;28;20627;-52
2024/03/03 10:37:32;;;;;;;33.37;20.57;;;11.70;99.90;;;;;;4963434;28;20257;-52
2024/03/03 10:40:00;;;;;;;31.53;20.93;;;11.80;99.90;;;;;;4948339;28;20214;-50
2024/03/03 10:42:30;;;;;;;29.30;21.30;;;11.80;99.90;;;;;;4963215;28;20648;-53
2024/03/03 10:44:57;;;;;;;29.60;21.50;;;11.90;99.90;;;;;;4950293;28;20213;-53
2024/03/03 10:47:25;;;;;;;28.77;20.57;;;12.00;99.90;;;;;;4934853;28;20208;-54
2024/03/03 10:49:52;;;;;;;31.50;19.43;;;12.00;99.90;;;;;;4962294;28;20995;-53
2024/03/03 10:52:20;;;;;;;26.43;19.17;;;12.10;99.90;;;;;;4957430;28;20201;-57
2024/03/03 10:54:48;;;;;;;26.23;18.83;;;12.20;99.90;;;;;;4954973;28;20253;-50
2024/03/03 10:57:19;;;;;;;25.33;19.60;;;12.20;99.90;;;;;;4966043;28;20190;-49
2024/03/03 10:59:47;;;;;;;28.40;19.00;;;12.30;99.90;;;;;;4960138;28;20245;-53
2024/03/03 11:02:15;;;;;;;26.93;18.87;;;12.30;99.90;;;;;;4924009;28;20221;-52
2024/03/03 11:04:43;;;;;;;26.20;18.30;;;12.40;99.90;;;;;;4955982;28;20205;-52
2024/03/03 11:07:11;;;;;;;25.80;18.07;;;12.50;99.90;;;;;;4945974;28;20218;-52
2024/03/03 11:09:39;;;;;;;23.07;16.83;;;12.50;99.90;;;;;;4961989;28;20228;-53
2024/03/03 11:12:07;;;;;;;23.20;16.67;;;12.60;99.90;;;;;;4956256;28;20212;-54
2024/03/03 11:14:45;;;;;;;25.47;17.40;;;12.60;99.90;;;;;;4961399;28;20221;-52
2024/03/03 11:17:16;;;;;;;23.83;15.60;;;12.70;99.90;;;;;;4950945;28;20335;-50
2024/03/03 11:19:46;;;;;;;22.33;16.00;;;12.80;99.90;;;;;;4930394;28;20222;-52
2024/03/03 11:22:18;;;;;;;21.07;15.70;;;12.90;99.90;;;;;;4960134;28;20194;-50
2024/03/03 11:24:53;;;;;;;20.73;13.90;;;12.90;99.90;;;;;;4948244;28;20285;-53
2024/03/03 11:27:24;;;;;;;19.07;13.97;;;13.00;99.90;;;;;;4953864;28;20201;-49
2024/03/03 11:29:51;;;;;;;17.00;12.27;;;13.00;99.90;;;;;;4950428;28;20260;-49
2024/03/03 11:32:20;;;;;;;17.90;12.80;;;13.10;99.90;;;;;;4952231;28;20206;-50
2024/03/03 11:34:48;;;;;;;17.33;13.37;;;13.20;99.90;;;;;;4924743;28;20746;-50
2024/03/03 11:37:15;;;;;;;15.20;12.43;;;13.20;99.90;;;;;;4962316;28;20225;-54
2024/03/03 11:39:53;;;;;;;15.13;11.90;;;13.20;99.90;;;;;;4960488;28;20300;-50
2024/03/03 11:42:21;;;;;;;18.63;12.90;;;13.40;99.90;;;;;;4952743;28;20217;-52
2024/03/03 11:44:50;;;;;;;29.27;18.23;;;13.50;99.90;;;;;;4958866;28;20198;-55
2024/03/03 11:47:17;;;;;;;24.27;18.47;;;13.50;99.90;;;;;;4953200;28;20946;-52
2024/03/03 11:49:45;;;;;;;24.87;18.30;;;13.60;99.90;;;;;;4920153;28;20225;-52
2024/03/03 11:52:12;;;;;;;18.47;14.67;;;13.60;99.90;;;;;;4961957;28;20292;-52
2024/03/03 11:54:39;;;;;;;20.40;16.27;;;13.60;99.90;;;;;;4960260;28;20222;-50
2024/03/03 11:57:09;;;;;;;23.33;17.43;;;13.60;99.90;;;;;;4953116;28;20257;-54
2024/03/03 11:59:38;;;;;;;28.00;18.33;;;13.60;99.90;;;;;;4956059;28;20222;-52
2024/03/03 12:02:06;;;;;;;28.87;18.50;;;13.70;99.90;;;;;;4947054;28;20217;-51
2024/03/03 12:04:32;;;;;;;23.80;18.13;;;13.60;99.90;;;;;;4922500;28;20288;-50
2024/03/03 12:06:59;;;;;;;24.13;17.90;;;13.60;99.90;;;;;;4962344;28;20274;-53
2024/03/03 12:09:27;;;;;;;24.27;18.83;;;13.60;99.90;;;;;;4950793;28;20233;-53
2024/03/03 12:11:56;;;;;;;25.67;18.37;;;13.60;99.90;;;;;;4951699;28;20596;-52
2024/03/03 12:14:24;;;;;;;25.20;18.50;;;13.60;99.90;;;;;;4959933;28;20310;-53
2024/03/03 12:16:51;;;;;;;26.00;19.37;;;13.60;99.90;;;;;;4952744;28;20355;-53
2024/03/03 12:19:18;;;;;;;26.10;18.17;;;13.50;99.90;;;;;;4946895;28;20230;-54
2024/03/03 12:21:45;;;;;;;25.80;19.47;;;13.50;99.90;;;;;;4932380;28;20268;-51
2024/03/03 12:24:15;;;;;;;25.77;19.30;;;13.40;99.90;;;;;;4960769;28;20210;-50
2024/03/03 12:26:42;;;;;;;28.10;19.13;;;13.50;99.90;;;;;;4964723;28;20264;-50
2024/03/03 12:29:09;;;;;;;25.63;18.13;;;13.50;99.90;;;;;;4954718;28;20229;-52
2024/03/03 12:31:37;;;;;;;24.67;18.57;;;13.50;99.90;;;;;;4964975;28;20204;-55
2024/03/03 12:34:04;;;;;;;24.67;18.77;;;13.50;99.90;;;;;;4951937;28;20229;-52
2024/03/03 12:36:31;;;;;;;25.23;19.17;;;13.60;99.90;;;;;;4927294;28;20206;-50
2024/03/03 12:38:58;;;;;;;25.17;19.97;;;13.70;99.90;;;;;;4962481;28;20198;-51